Time;durP1;ratioP1;P1;durP2;ratioP2;P2;SDS_P1;SDS_P2;PMS_P1;PMS_P2;Temp;Humidity;BMP_temperature;BMP_pressure;BME280_temperature;BME280_humidity;BME280_pressure;Samples;Min_cycle;Max_cycle;Signal;HPM_P1;HPM_P2
2022/05/14 00:00:36;;;;;;;17.08;4.32;;;;;;;;;;4959841;28;20067;-87
2022/05/14 00:03:03;;;;;;;16.23;4.70;;;;;;;;;;4958917;28;20050;-88
2022/05/14 00:05:29;;;;;;;17.33;5.22;;;;;;;;;;4980174;28;20034;-88
2022/05/14 00:07:56;;;;;;;26.13;5.05;;;;;;;;;;4981490;28;20041;-87
2022/05/14 00:10:23;;;;;;;21.58;4.70;;;;;;;;;;4979257;28;20418;-87
2022/05/14 00:13:04;;;;;;;22.00;5.32;;;;;;;;;;4964778;28;20041;-87
2022/05/14 00:15:36;;;;;;;16.67;4.85;;;;;;;;;;4961230;28;20042;-87
2022/05/14 00:18:03;;;;;;;20.55;5.22;;;;;;;;;;4982780;28;20560;-87
2022/05/14 00:20:29;;;;;;;28.13;5.05;;;;;;;;;;4972502;28;20493;-87
2022/05/14 00:22:55;;;;;;;17.17;5.53;;;;;;;;;;4966952;28;20169;-87
2022/05/14 00:25:21;;;;;;;16.15;5.15;;;;;;;;;;4966722;28;20042;-87
2022/05/14 00:27:49;;;;;;;23.60;4.82;;;;;;;;;;4963777;28;20146;-87
2022/05/14 00:30:16;;;;;;;19.88;5.20;;;;;;;;;;4965724;28;20030;-87
2022/05/14 00:32:42;;;;;;;19.23;5.30;;;;;;;;;;4966066;28;20026;-88
2022/05/14 00:35:09;;;;;;;23.33;5.65;;;;;;;;;;4964191;28;20409;-88
2022/05/14 00:37:35;;;;;;;19.23;5.28;;;;;;;;;;4959804;28;20026;-87
2022/05/14 00:40:04;;;;;;;28.77;5.68;;;;;;;;;;4963250;28;20041;-87
2022/05/14 00:42:31;;;;;;;28.33;5.05;;;;;;;;;;4984026;28;20068;-88
2022/05/14 00:44:57;;;;;;;23.55;5.20;;;;;;;;;;4965803;28;20023;-87
2022/05/14 00:47:23;;;;;;;36.65;8.18;;;;;;;;;;4968467;28;20493;-87
2022/05/14 00:49:49;;;;;;;22.13;5.00;;;;;;;;;;4962592;28;20030;-87
2022/05/14 00:52:18;;;;;;;28.95;6.72;;;;;;;;;;4984108;28;20031;-88
2022/05/14 00:55:04;;;;;;;34.42;5.45;;;;;;;;;;4967806;28;20089;-88
2022/05/14 00:57:34;;;;;;;31.02;5.35;;;;;;;;;;4959794;28;20026;-87
2022/05/14 01:00:03;;;;;;;28.38;5.72;;;;;;;;;;4963635;28;20541;-88
2022/05/14 01:02:29;;;;;;;18.98;4.65;;;;;;;;;;4970506;28;20026;-87
2022/05/14 01:04:55;;;;;;;24.45;4.88;;;;;;;;;;4968941;28;20045;-89
2022/05/14 01:07:22;;;;;;;29.65;5.53;;;;;;;;;;4967393;28;20043;-88
2022/05/14 01:09:56;;;;;;;22.00;5.30;;;;;;;;;;4968349;28;20037;-88
2022/05/14 01:12:23;;;;;;;26.50;6.03;;;;;;;;;;4969652;28;20049;-88
2022/05/14 01:15:06;;;;;;;23.52;6.03;;;;;;;;;;4955998;28;20061;-87
2022/05/14 01:17:32;;;;;;;35.35;6.55;;;;;;;;;;4964066;28;20034;-88
2022/05/14 01:19:58;;;;;;;26.20;6.10;;;;;;;;;;4984666;28;20026;-87
2022/05/14 01:22:24;;;;;;;33.45;4.85;;;;;;;;;;4956377;28;20026;-88
2022/05/14 01:27:49;;;;;;;32.75;6.25;;;;;;;;;;4979913;28;20046;-88
2022/05/14 01:30:16;;;;;;;27.02;5.68;;;;;;;;;;4958226;28;20554;-88
2022/05/14 01:32:42;;;;;;;30.40;5.57;;;;;;;;;;4967997;28;20034;-87
2022/05/14 01:35:08;;;;;;;29.90;5.75;;;;;;;;;;4963482;28;20046;-87
2022/05/14 01:37:34;;;;;;;29.73;6.55;;;;;;;;;;4969009;28;20153;-87
2022/05/14 01:40:06;;;;;;;29.67;5.55;;;;;;;;;;4962054;28;20030;-87
2022/05/14 01:42:32;;;;;;;13.80;4.55;;;;;;;;;;4966791;28;20135;-86
2022/05/14 01:44:58;;;;;;;30.65;6.82;;;;;;;;;;4981885;28;20109;-87
2022/05/14 01:47:24;;;;;;;23.92;5.57;;;;;;;;;;4963349;28;20109;-87
2022/05/14 01:49:50;;;;;;;27.45;6.43;;;;;;;;;;4966755;28;20565;-87
2022/05/14 01:52:16;;;;;;;24.00;6.28;;;;;;;;;;4963448;28;20038;-87
2022/05/14 01:54:42;;;;;;;38.10;7.32;;;;;;;;;;4960595;28;20042;-87
2022/05/14 01:57:08;;;;;;;28.55;6.35;;;;;;;;;;4963980;28;20033;-86
2022/05/14 01:59:34;;;;;;;39.72;6.95;;;;;;;;;;4961155;28;20433;-87
2022/05/14 02:02:00;;;;;;;31.25;7.68;;;;;;;;;;4978999;28;20058;-87
2022/05/14 02:04:27;;;;;;;26.52;6.07;;;;;;;;;;4979023;28;20046;-87
2022/05/14 02:06:53;;;;;;;21.52;6.82;;;;;;;;;;4955601;28;20034;-87
2022/05/14 02:09:19;;;;;;;37.85;6.50;;;;;;;;;;4959174;28;20014;-87
2022/05/14 02:11:46;;;;;;;29.10;6.70;;;;;;;;;;4961345;28;21034;-88
2022/05/14 02:14:12;;;;;;;38.95;7.35;;;;;;;;;;4981900;28;20030;-88
2022/05/14 02:16:38;;;;;;;37.70;6.18;;;;;;;;;;4966981;28;20045;-87
2022/05/14 02:19:04;;;;;;;37.63;7.32;;;;;;;;;;4964495;28;20037;-87
2022/05/14 02:21:32;;;;;;;39.88;7.47;;;;;;;;;;4957121;28;20023;-87
2022/05/14 02:23:59;;;;;;;29.52;7.00;;;;;;;;;;4980930;28;20034;-87
2022/05/14 02:26:25;;;;;;;47.13;7.35;;;;;;;;;;4957143;28;20553;-88
2022/05/14 02:28:51;;;;;;;40.08;8.15;;;;;;;;;;4979169;28;20069;-87
2022/05/14 02:31:17;;;;;;;28.05;6.72;;;;;;;;;;4955496;28;20552;-87
2022/05/14 02:33:43;;;;;;;36.20;7.55;;;;;;;;;;4963199;28;20046;-87
2022/05/14 02:36:10;;;;;;;36.63;8.25;;;;;;;;;;4957643;28;20027;-88
2022/05/14 02:38:36;;;;;;;34.42;7.85;;;;;;;;;;4964847;28;20169;-87
2022/05/14 02:41:03;;;;;;;37.30;8.07;;;;;;;;;;4963342;28;20038;-88
2022/05/14 02:43:29;;;;;;;42.17;8.38;;;;;;;;;;4981944;28;20089;-88
2022/05/14 02:45:55;;;;;;;44.13;8.55;;;;;;;;;;4961656;28;20398;-88
2022/05/14 02:48:21;;;;;;;32.65;7.95;;;;;;;;;;4979642;28;20030;-88
2022/05/14 02:50:47;;;;;;;42.85;8.98;;;;;;;;;;4959265;28;20577;-87
2022/05/14 02:53:13;;;;;;;31.15;8.30;;;;;;;;;;4963207;28;20061;-87
2022/05/14 02:55:39;;;;;;;38.05;7.63;;;;;;;;;;4967215;28;20022;-87
2022/05/14 02:58:05;;;;;;;36.53;8.73;;;;;;;;;;4978098;28;20341;-87
2022/05/14 03:00:31;;;;;;;34.92;7.53;;;;;;;;;;4954633;28;20058;-87
2022/05/14 03:02:57;;;;;;;41.92;9.05;;;;;;;;;;4958427;28;20473;-87
2022/05/14 03:05:24;;;;;;;39.80;8.68;;;;;;;;;;4966354;28;20568;-87
2022/05/14 03:07:50;;;;;;;51.15;7.72;;;;;;;;;;4958489;28;20541;-88
2022/05/14 03:10:22;;;;;;;36.65;8.07;;;;;;;;;;4956080;28;20575;-87
2022/05/14 03:12:48;;;;;;;38.50;7.88;;;;;;;;;;4967507;28;20641;-87
2022/05/14 03:15:14;;;;;;;32.53;7.82;;;;;;;;;;4959105;28;20038;-87
2022/05/14 03:17:40;;;;;;;41.65;8.10;;;;;;;;;;4964251;28;20042;-87
2022/05/14 03:20:08;;;;;;;49.97;8.32;;;;;;;;;;4968173;28;20414;-88
2022/05/14 03:22:35;;;;;;;51.45;8.82;;;;;;;;;;4977589;28;20035;-87
2022/05/14 03:25:01;;;;;;;39.63;9.60;;;;;;;;;;4963686;28;20722;-88
2022/05/14 03:27:27;;;;;;;53.35;8.07;;;;;;;;;;4965056;28;20050;-87
2022/05/14 03:29:54;;;;;;;39.10;6.93;;;;;;;;;;4981036;28;20026;-87
2022/05/14 03:32:20;;;;;;;41.35;8.02;;;;;;;;;;4962747;28;20424;-88
2022/05/14 03:34:46;;;;;;;44.80;8.63;;;;;;;;;;4963544;28;20089;-87
2022/05/14 03:37:13;;;;;;;43.50;8.23;;;;;;;;;;4967700;28;20080;-86
2022/05/14 03:39:39;;;;;;;46.83;8.60;;;;;;;;;;4963852;28;20030;-87
2022/05/14 03:42:05;;;;;;;49.22;7.88;;;;;;;;;;4962200;28;20038;-88
2022/05/14 03:44:31;;;;;;;39.65;8.30;;;;;;;;;;4968992;28;20081;-88
2022/05/14 03:46:58;;;;;;;37.60;7.43;;;;;;;;;;4981318;28;20054;-87
2022/05/14 03:49:24;;;;;;;52.70;8.05;;;;;;;;;;4966077;28;20022;-87
2022/05/14 03:51:50;;;;;;;37.63;7.28;;;;;;;;;;4969958;28;20145;-87
2022/05/14 03:54:17;;;;;;;46.60;9.32;;;;;;;;;;4969082;28;20567;-88
2022/05/14 03:56:43;;;;;;;45.08;8.43;;;;;;;;;;4968738;28;20034;-88
2022/05/14 03:59:09;;;;;;;35.78;7.68;;;;;;;;;;4977795;28;20077;-88
2022/05/14 04:01:35;;;;;;;49.25;8.15;;;;;;;;;;4969915;28;20058;-88
2022/05/14 04:04:01;;;;;;;39.17;8.23;;;;;;;;;;4966016;28;20438;-87
2022/05/14 04:06:28;;;;;;;37.20;7.70;;;;;;;;;;4965212;28;20085;-88
2022/05/14 04:08:54;;;;;;;39.10;8.27;;;;;;;;;;4984952;28;20539;-88
2022/05/14 04:11:20;;;;;;;42.47;9.10;;;;;;;;;;4969718;28;20086;-86
2022/05/14 04:13:46;;;;;;;38.22;8.18;;;;;;;;;;4984477;28;20038;-85
2022/05/14 04:16:12;;;;;;;43.80;9.98;;;;;;;;;;4968089;28;20359;-85
2022/05/14 04:18:38;;;;;;;56.45;8.73;;;;;;;;;;4962632;28;20545;-85
2022/05/14 04:21:04;;;;;;;48.70;9.45;;;;;;;;;;4968335;28;20541;-86
2022/05/14 04:23:31;;;;;;;42.35;8.32;;;;;;;;;;4967232;28;20037;-86
2022/05/14 04:25:58;;;;;;;43.85;8.13;;;;;;;;;;4967036;28;20030;-85
2022/05/14 04:28:24;;;;;;;42.83;8.52;;;;;;;;;;4981821;28;20174;-86
2022/05/14 04:30:51;;;;;;;40.15;9.60;;;;;;;;;;4964304;28;20113;-88
2022/05/14 04:33:18;;;;;;;42.15;8.13;;;;;;;;;;4966473;28;20177;-88
2022/05/14 04:35:44;;;;;;;39.00;8.98;;;;;;;;;;4965471;28;20082;-87
2022/05/14 04:38:10;;;;;;;41.35;7.40;;;;;;;;;;4968478;28;20026;-88
2022/05/14 04:40:36;;;;;;;37.63;7.60;;;;;;;;;;4967818;28;20931;-88
2022/05/14 04:43:05;;;;;;;37.70;7.50;;;;;;;;;;4963959;28;20034;-87
2022/05/14 04:45:31;;;;;;;39.95;8.52;;;;;;;;;;4980497;28;20030;-87
2022/05/14 04:47:57;;;;;;;41.42;8.85;;;;;;;;;;4964716;28;20037;-88
2022/05/14 04:50:23;;;;;;;34.75;7.22;;;;;;;;;;4968147;28;20038;-88
2022/05/14 04:52:49;;;;;;;34.67;7.88;;;;;;;;;;4969457;28;20034;-87
2022/05/14 04:55:15;;;;;;;30.10;7.90;;;;;;;;;;4960090;28;20113;-88
2022/05/14 04:57:43;;;;;;;39.25;7.38;;;;;;;;;;4954682;28;20051;-88
2022/05/14 05:00:10;;;;;;;35.42;7.65;;;;;;;;;;4969680;28;20454;-87
2022/05/14 05:05:21;;;;;;;43.67;8.48;;;;;;;;;;4983760;28;20697;-88
2022/05/14 05:07:47;;;;;;;41.47;9.23;;;;;;;;;;4962641;28;20038;-88
2022/05/14 05:10:13;;;;;;;26.75;6.43;;;;;;;;;;4964008;28;20030;-88
2022/05/14 05:12:39;;;;;;;32.38;7.00;;;;;;;;;;4985657;28;20180;-88
2022/05/14 05:15:06;;;;;;;50.85;9.13;;;;;;;;;;4969246;28;20042;-87
2022/05/14 05:17:32;;;;;;;35.20;7.32;;;;;;;;;;4966668;28;20086;-88
2022/05/14 05:19:58;;;;;;;36.88;7.00;;;;;;;;;;4966742;28;20035;-88
2022/05/14 05:22:24;;;;;;;30.55;6.72;;;;;;;;;;4970352;28;20465;-87
2022/05/14 05:24:50;;;;;;;33.53;7.10;;;;;;;;;;4979979;28;20035;-87
2022/05/14 05:27:16;;;;;;;28.55;5.97;;;;;;;;;;4965581;28;20736;-87
2022/05/14 05:29:42;;;;;;;38.35;7.95;;;;;;;;;;4964717;28;20150;-88
2022/05/14 05:32:08;;;;;;;43.13;8.52;;;;;;;;;;4968623;28;20035;-88
2022/05/14 05:34:34;;;;;;;35.25;6.70;;;;;;;;;;4960540;28;20482;-88
2022/05/14 05:37:00;;;;;;;39.92;8.23;;;;;;;;;;4982949;28;20026;-87
2022/05/14 05:39:26;;;;;;;26.25;6.15;;;;;;;;;;4965403;28;20030;-89
2022/05/14 05:41:54;;;;;;;43.38;7.25;;;;;;;;;;4964553;28;20030;-87
2022/05/14 05:44:20;;;;;;;29.02;7.07;;;;;;;;;;4979738;28;20096;-87
2022/05/14 05:46:46;;;;;;;26.38;6.78;;;;;;;;;;4963949;28;20038;-87
2022/05/14 05:49:12;;;;;;;27.98;6.05;;;;;;;;;;4981556;28;20461;-88
2022/05/14 05:51:38;;;;;;;26.40;5.50;;;;;;;;;;4963271;28;20516;-88
2022/05/14 05:56:51;;;;;;;31.15;5.68;;;;;;;;;;4980824;28;20088;-88
2022/05/14 05:59:18;;;;;;;25.63;6.18;;;;;;;;;;4964762;28;20038;-88
2022/05/14 06:01:44;;;;;;;27.20;7.53;;;;;;;;;;4969184;28;20034;-88
2022/05/14 06:04:11;;;;;;;35.83;5.55;;;;;;;;;;4961023;28;20037;-87
2022/05/14 06:06:41;;;;;;;26.10;5.75;;;;;;;;;;4959894;28;20660;-88
2022/05/14 06:09:08;;;;;;;29.55;5.53;;;;;;;;;;4985391;28;20046;-87
2022/05/14 06:11:34;;;;;;;24.73;5.35;;;;;;;;;;4969124;28;20382;-87
2022/05/14 06:14:00;;;;;;;28.13;5.32;;;;;;;;;;4969072;28;20570;-86
2022/05/14 06:16:26;;;;;;;21.13;5.55;;;;;;;;;;4969986;28;20334;-87
2022/05/14 06:18:52;;;;;;;27.92;6.20;;;;;;;;;;4968857;28;20042;-87
2022/05/14 06:21:18;;;;;;;18.85;5.68;;;;;;;;;;4968837;28;20034;-88
2022/05/14 06:23:44;;;;;;;22.33;5.05;;;;;;;;;;4961404;28;20034;-87
2022/05/14 06:26:10;;;;;;;28.25;5.85;;;;;;;;;;4966850;28;20034;-86
2022/05/14 06:28:36;;;;;;;20.13;4.70;;;;;;;;;;4977216;28;20109;-87
2022/05/14 06:31:09;;;;;;;30.92;5.32;;;;;;;;;;4964425;28;20385;-87
2022/05/14 06:33:35;;;;;;;20.55;5.05;;;;;;;;;;4979371;28;20402;-87
2022/05/14 06:36:01;;;;;;;26.42;5.68;;;;;;;;;;4965802;28;20037;-88
2022/05/14 06:38:27;;;;;;;30.75;5.05;;;;;;;;;;4963401;28;20667;-88
2022/05/14 06:40:53;;;;;;;22.58;5.30;;;;;;;;;;4962801;28;20674;-87
2022/05/14 06:43:19;;;;;;;23.48;5.25;;;;;;;;;;4962757;28;20085;-87
2022/05/14 06:45:45;;;;;;;22.90;4.55;;;;;;;;;;4968318;28;20118;-87
2022/05/14 06:48:12;;;;;;;28.55;6.03;;;;;;;;;;4960047;28;20045;-88
2022/05/14 06:50:41;;;;;;;24.88;5.47;;;;;;;;;;4981845;28;20578;-88
2022/05/14 06:53:08;;;;;;;16.42;4.75;;;;;;;;;;4980579;28;20018;-88
2022/05/14 06:55:36;;;;;;;20.08;5.63;;;;;;;;;;4962565;28;20035;-87
2022/05/14 06:58:02;;;;;;;17.13;3.75;;;;;;;;;;4979936;28;20030;-87
2022/05/14 07:00:28;;;;;;;30.77;4.80;;;;;;;;;;4983153;28;20055;-87
2022/05/14 07:06:37;;;;;;;19.85;4.00;;;;;;;;;;4961215;28;20038;-86
2022/05/14 07:08:26;;;;;;;14.73;4.40;;;;;;;;;;4977287;28;20509;-87
2022/05/14 07:10:52;;;;;;;15.90;4.78;;;;;;;;;;4956276;28;20030;-87
2022/05/14 07:13:18;;;;;;;25.80;4.93;;;;;;;;;;4969658;28;20031;-87
2022/05/14 07:15:44;;;;;;;26.98;4.43;;;;;;;;;;4962869;28;20074;-88
2022/05/14 07:18:10;;;;;;;15.23;4.25;;;;;;;;;;4965165;28;20084;-88
2022/05/14 07:20:36;;;;;;;19.17;4.38;;;;;;;;;;4982560;28;20454;-87
2022/05/14 07:23:02;;;;;;;24.33;5.18;;;;;;;;;;4986702;28;20030;-89
2022/05/14 07:25:28;;;;;;;20.38;4.43;;;;;;;;;;4964179;28;20030;-87
2022/05/14 07:27:54;;;;;;;23.40;4.07;;;;;;;;;;4970640;28;20475;-87
2022/05/14 07:30:21;;;;;;;17.35;4.93;;;;;;;;;;4971251;28;20030;-89
2022/05/14 07:32:47;;;;;;;12.23;3.08;;;;;;;;;;4981837;28;20042;-89
2022/05/14 07:35:13;;;;;;;9.93;3.97;;;;;;;;;;4984574;28;20430;-90
2022/05/14 07:37:45;;;;;;;17.00;4.60;;;;;;;;;;4967756;28;20034;-89
2022/05/14 07:40:13;;;;;;;18.23;5.40;;;;;;;;;;4968105;28;20093;-89
2022/05/14 07:42:39;;;;;;;16.05;4.55;;;;;;;;;;4968294;28;20034;-89
2022/05/14 07:45:07;;;;;;;19.95;4.07;;;;;;;;;;4964007;28;20091;-89
2022/05/14 07:47:33;;;;;;;16.48;3.75;;;;;;;;;;4984706;28;20058;-89
2022/05/14 07:50:01;;;;;;;17.17;3.97;;;;;;;;;;4980066;28;20134;-89
2022/05/14 07:52:27;;;;;;;10.40;3.55;;;;;;;;;;4982564;28;20393;-89
2022/05/14 07:54:53;;;;;;;12.32;3.50;;;;;;;;;;4970060;28;20058;-87
2022/05/14 07:57:19;;;;;;;13.80;3.38;;;;;;;;;;4981353;28;21365;-89
2022/05/14 07:59:46;;;;;;;16.83;4.70;;;;;;;;;;4956237;28;20042;-89
2022/05/14 08:02:31;;;;;;;16.20;4.45;;;;;;;;;;4980238;28;20494;-89
2022/05/14 08:04:57;;;;;;;18.27;3.93;;;;;;;;;;4966889;28;20042;-90
2022/05/14 08:07:23;;;;;;;14.80;4.07;;;;;;;;;;4959268;28;20675;-90
2022/05/14 08:09:49;;;;;;;18.05;3.88;;;;;;;;;;4969144;28;20046;-90
2022/05/14 08:12:16;;;;;;;20.42;4.28;;;;;;;;;;4979960;28;20041;-90
2022/05/14 08:14:42;;;;;;;17.02;4.10;;;;;;;;;;4969628;28;20038;-89
2022/05/14 08:17:08;;;;;;;19.75;4.35;;;;;;;;;;4962566;28;20051;-89
2022/05/14 08:19:34;;;;;;;16.02;4.72;;;;;;;;;;4962757;28;20038;-90
2022/05/14 08:24:52;;;;;;;17.13;4.18;;;;;;;;;;4983326;28;20097;-91
2022/05/14 08:27:18;;;;;;;16.85;3.95;;;;;;;;;;4965063;28;20037;-89
2022/05/14 08:29:47;;;;;;;18.02;4.53;;;;;;;;;;4968122;28;20035;-90
2022/05/14 08:32:13;;;;;;;15.40;3.92;;;;;;;;;;4961602;28;20050;-90
2022/05/14 08:34:40;;;;;;;12.50;3.65;;;;;;;;;;4983909;28;20041;-90
2022/05/14 08:37:07;;;;;;;19.58;4.40;;;;;;;;;;4980016;28;20036;-90
2022/05/14 08:39:33;;;;;;;22.80;4.05;;;;;;;;;;4964510;28;20033;-91
2022/05/14 08:42:00;;;;;;;19.25;4.18;;;;;;;;;;4961313;28;20350;-89
2022/05/14 08:44:33;;;;;;;20.73;4.63;;;;;;;;;;4968300;28;20034;-91
2022/05/14 08:47:03;;;;;;;13.55;3.63;;;;;;;;;;4979037;28;20030;-90
2022/05/14 08:49:34;;;;;;;21.48;4.68;;;;;;;;;;4983794;28;20015;-90
2022/05/14 08:52:01;;;;;;;11.90;4.07;;;;;;;;;;4965793;28;20039;-92
2022/05/14 08:54:28;;;;;;;12.18;4.07;;;;;;;;;;4966198;28;20026;-92
2022/05/14 08:56:54;;;;;;;16.98;4.28;;;;;;;;;;4965330;28;20450;-91
2022/05/14 08:59:38;;;;;;;20.38;5.18;;;;;;;;;;4962707;28;20121;-93
2022/05/14 09:02:13;;;;;;;18.42;4.93;;;;;;;;;;4962580;28;20046;-90
2022/05/14 09:04:39;;;;;;;21.05;4.15;;;;;;;;;;4955125;28;20088;-90
2022/05/14 09:07:06;;;;;;;23.52;4.90;;;;;;;;;;4977825;28;20352;-90
2022/05/14 09:09:32;;;;;;;20.13;4.47;;;;;;;;;;4963455;28;20556;-91
2022/05/14 09:12:00;;;;;;;16.58;3.70;;;;;;;;;;4981746;28;20023;-90
2022/05/14 09:14:29;;;;;;;14.48;4.25;;;;;;;;;;4965248;28;20397;-89
2022/05/14 09:16:59;;;;;;;22.02;4.70;;;;;;;;;;4964984;28;20984;-90
2022/05/14 09:19:31;;;;;;;22.70;5.38;;;;;;;;;;4948512;28;20106;-90
2022/05/14 09:21:58;;;;;;;17.85;3.75;;;;;;;;;;4945548;28;20407;-89
2022/05/14 09:24:28;;;;;;;20.40;5.00;;;;;;;;;;4944217;28;20060;-89
2022/05/14 09:26:56;;;;;;;18.83;5.00;;;;;;;;;;4943537;28;20031;-88
2022/05/14 09:29:25;;;;;;;19.60;5.00;;;;;;;;;;4946885;28;20031;-89
2022/05/14 09:31:55;;;;;;;11.40;3.70;;;;;;;;;;4946215;28;20085;-90
2022/05/14 09:34:22;;;;;;;38.00;3.38;;;;;;;;;;4940977;28;20035;-89
2022/05/14 09:36:51;;;;;;;19.65;4.43;;;;;;;;;;4950360;28;20595;-89
2022/05/14 09:39:18;;;;;;;28.38;4.53;;;;;;;;;;4941873;28;20042;-90
2022/05/14 09:41:53;;;;;;;20.55;4.20;;;;;;;;;;4963461;28;20045;-87
2022/05/14 09:44:19;;;;;;;18.05;3.95;;;;;;;;;;4961020;28;20494;-89
2022/05/14 09:46:45;;;;;;;19.85;4.80;;;;;;;;;;4946187;28;20727;-89
2022/05/14 09:49:18;;;;;;;23.85;4.78;;;;;;;;;;4965908;28;20577;-89
2022/05/14 09:51:49;;;;;;;28.45;5.13;;;;;;;;;;4947169;28;20150;-89
2022/05/14 09:54:23;;;;;;;27.63;5.78;;;;;;;;;;4968336;28;20094;-89
2022/05/14 09:57:08;;;;;;;22.80;4.47;;;;;;;;;;4949675;28;20607;-89
2022/05/14 09:59:45;;;;;;;19.00;4.82;;;;;;;;;;4962677;28;20022;-89
2022/05/14 10:02:15;;;;;;;18.67;4.57;;;;;;;;;;4967475;28;20035;-89
2022/05/14 10:04:50;;;;;;;28.05;4.57;;;;;;;;;;4947980;28;20078;-89
2022/05/14 10:07:23;;;;;;;21.70;5.32;;;;;;;;;;4964639;28;20034;-89
2022/05/14 10:10:08;;;;;;;16.05;3.72;;;;;;;;;;4966307;28;20103;-89
2022/05/14 10:12:37;;;;;;;19.88;4.53;;;;;;;;;;4948282;28;20023;-89
2022/05/14 10:15:03;;;;;;;18.13;4.97;;;;;;;;;;4947963;28;21601;-89
2022/05/14 10:17:29;;;;;;;23.00;4.80;;;;;;;;;;4961552;28;20058;-89
2022/05/14 10:20:13;;;;;;;13.57;4.38;;;;;;;;;;4963025;28;20049;-89
2022/05/14 10:28:43;;;;;;;19.67;3.78;;;;;;;;;;4977099;28;20466;-89
2022/05/14 10:31:37;;;;;;;23.85;4.53;;;;;;;;;;4976411;28;20110;-90
2022/05/14 10:34:03;;;;;;;;;;;;;;;;;;4964030;28;20117;-89
2022/05/14 10:36:44;;;;;;;20.10;4.50;;;;;;;;;;4971170;28;19981;-89
2022/05/14 10:39:29;;;;;;;25.27;5.07;;;;;;;;;;4983885;28;20027;-89
2022/05/14 10:42:03;;;;;;;25.00;6.33;;;;;;;;;;4979610;28;20065;-89
2022/05/14 10:44:36;;;;;;;18.45;4.30;;;;;;;;;;4983704;28;20030;-89
2022/05/14 10:47:04;;;;;;;23.00;5.47;;;;;;;;;;4966737;28;20034;-89
2022/05/14 10:49:48;;;;;;;19.10;6.00;;;;;;;;;;4978390;28;20034;-89
2022/05/14 10:52:16;;;;;;;15.05;4.80;;;;;;;;;;4984965;28;20023;-89
2022/05/14 10:54:43;;;;;;;20.05;4.90;;;;;;;;;;4967906;28;20093;-89
2022/05/14 10:57:09;;;;;;;26.20;5.53;;;;;;;;;;4967715;28;20564;-90
2022/05/14 10:59:38;;;;;;;19.85;4.60;;;;;;;;;;4969517;28;20144;-89
2022/05/14 11:02:15;;;;;;;13.30;3.97;;;;;;;;;;4969042;28;20034;-88
2022/05/14 11:04:46;;;;;;;18.60;4.38;;;;;;;;;;4980655;28;20489;-89
2022/05/14 11:07:14;;;;;;;23.80;4.72;;;;;;;;;;4964792;28;20104;-89
2022/05/14 11:09:42;;;;;;;16.10;4.35;;;;;;;;;;4964625;28;20471;-89
2022/05/14 11:12:11;;;;;;;18.65;4.95;;;;;;;;;;4963900;28;20121;-89
2022/05/14 11:14:43;;;;;;;18.75;4.43;;;;;;;;;;4964453;28;20034;-90
2022/05/14 11:17:36;;;;;;;18.52;4.93;;;;;;;;;;4958088;28;20081;-89
2022/05/14 11:20:05;;;;;;;23.25;5.47;;;;;;;;;;4968318;28;20112;-89
2022/05/14 11:22:33;;;;;;;18.08;5.07;;;;;;;;;;4969083;28;20038;-89
2022/05/14 11:25:22;;;;;;;18.38;4.70;;;;;;;;;;4964873;28;20410;-89
2022/05/14 11:28:07;;;;;;;19.80;5.57;;;;;;;;;;4954366;28;20584;-89
2022/05/14 11:30:38;;;;;;;18.13;4.47;;;;;;;;;;4961395;28;20027;-89
2022/05/14 11:33:07;;;;;;;19.45;5.35;;;;;;;;;;4964692;28;20030;-89
2022/05/14 11:35:40;;;;;;;17.60;4.75;;;;;;;;;;4977165;28;20125;-89
2022/05/14 11:38:29;;;;;;;16.27;3.70;;;;;;;;;;4985802;28;20518;-89
2022/05/14 11:41:02;;;;;;;22.10;4.15;;;;;;;;;;4978175;28;20037;-90
2022/05/14 11:43:31;;;;;;;17.20;3.72;;;;;;;;;;4958972;28;20088;-89
2022/05/14 11:46:18;;;;;;;16.58;4.53;;;;;;;;;;4968198;28;20517;-89
2022/05/14 11:48:44;;;;;;;21.10;4.60;;;;;;;;;;4947827;28;20070;-89
2022/05/14 11:51:22;;;;;;;20.20;5.47;;;;;;;;;;4978974;28;20019;-89
2022/05/14 11:53:56;;;;;;;18.60;4.72;;;;;;;;;;4952297;28;20411;-89
2022/05/14 11:56:28;;;;;;;26.52;5.28;;;;;;;;;;4980864;28;20470;-88
2022/05/14 11:59:07;;;;;;;21.42;6.13;;;;;;;;;;4968087;28;20031;-89
2022/05/14 12:01:36;;;;;;;23.63;6.05;;;;;;;;;;4978165;28;20029;-89
2022/05/14 12:04:08;;;;;;;23.25;6.35;;;;;;;;;;4961001;28;20515;-89
2022/05/14 12:06:52;;;;;;;21.00;5.50;;;;;;;;;;4980990;28;20057;-89
2022/05/14 12:09:26;;;;;;;37.20;6.03;;;;;;;;;;4966005;28;20030;-89
2022/05/14 12:12:01;;;;;;;38.25;6.70;;;;;;;;;;4969816;28;20486;-89
2022/05/14 12:14:32;;;;;;;18.30;4.93;;;;;;;;;;4982303;28;20470;-89
2022/05/14 12:16:59;;;;;;;21.27;6.63;;;;;;;;;;4968051;28;20468;-89
2022/05/14 12:19:41;;;;;;;27.40;6.18;;;;;;;;;;4967599;28;20129;-89
2022/05/14 12:22:29;;;;;;;21.42;4.82;;;;;;;;;;4988210;28;20058;-89
2022/05/14 12:25:00;;;;;;;19.75;4.95;;;;;;;;;;4986406;28;20110;-89
2022/05/14 12:27:28;;;;;;;20.45;5.10;;;;;;;;;;4965781;28;20423;-89
2022/05/14 12:29:54;;;;;;;21.88;4.68;;;;;;;;;;4969985;28;20030;-89
2022/05/14 12:35:19;;;;;;;21.03;4.53;;;;;;;;;;4989494;28;20888;-89
2022/05/14 12:37:45;;;;;;;23.27;5.03;;;;;;;;;;4955476;28;20062;-89
2022/05/14 12:40:23;;;;;;;17.90;5.50;;;;;;;;;;4965210;28;20034;-89
2022/05/14 12:42:51;;;;;;;18.75;4.97;;;;;;;;;;4956538;28;20120;-89
2022/05/14 12:45:17;;;;;;;15.68;4.85;;;;;;;;;;4968187;28;20038;-89
2022/05/14 12:47:43;;;;;;;20.52;5.13;;;;;;;;;;4979332;28;20105;-89
2022/05/14 12:50:20;;;;;;;17.70;5.88;;;;;;;;;;4963893;28;20558;-89
2022/05/14 12:52:54;;;;;;;21.70;4.95;;;;;;;;;;4966456;28;20042;-89
2022/05/14 12:55:21;;;;;;;24.52;4.78;;;;;;;;;;4964759;28;20035;-89
2022/05/14 12:57:47;;;;;;;17.02;4.93;;;;;;;;;;4963139;28;20055;-89
2022/05/14 13:00:17;;;;;;;17.30;4.93;;;;;;;;;;4986676;28;20110;-88
2022/05/14 13:03:03;;;;;;;24.60;5.75;;;;;;;;;;4982376;28;20033;-89
2022/05/14 13:05:37;;;;;;;25.63;4.95;;;;;;;;;;4959591;28;20030;-89
2022/05/14 13:08:06;;;;;;;21.88;5.28;;;;;;;;;;4964187;28;20039;-89
2022/05/14 13:10:32;;;;;;;18.73;4.82;;;;;;;;;;4989308;28;20030;-89
2022/05/14 13:13:00;;;;;;;17.70;4.72;;;;;;;;;;4969766;28;20053;-89
2022/05/14 13:15:33;;;;;;;21.35;5.80;;;;;;;;;;4963956;28;20023;-88
2022/05/14 13:18:09;;;;;;;27.95;6.10;;;;;;;;;;4943781;28;20035;-88
2022/05/14 13:20:36;;;;;;;18.88;4.50;;;;;;;;;;4949767;28;20050;-89
2022/05/14 13:23:10;;;;;;;17.25;4.47;;;;;;;;;;4951372;28;20038;-89
2022/05/14 13:25:37;;;;;;;17.20;5.07;;;;;;;;;;4948922;28;20474;-89
2022/05/14 13:28:12;;;;;;;19.52;5.25;;;;;;;;;;4939106;28;20510;-89
2022/05/14 13:30:38;;;;;;;18.95;5.75;;;;;;;;;;4949888;28;20407;-89
2022/05/14 13:33:05;;;;;;;21.00;4.78;;;;;;;;;;4950983;28;20502;-88
2022/05/14 13:38:15;;;;;;;19.00;4.35;;;;;;;;;;4961326;28;20094;-88
2022/05/14 13:40:50;;;;;;;28.52;5.63;;;;;;;;;;4946240;28;20030;-88
2022/05/14 13:43:18;;;;;;;57.60;8.15;;;;;;;;;;4946589;28;20038;-89
2022/05/14 13:46:04;;;;;;;72.20;7.22;;;;;;;;;;4947038;28;20046;-89
2022/05/14 13:48:30;;;;;;;24.98;4.90;;;;;;;;;;4944518;28;20102;-89
2022/05/14 13:51:03;;;;;;;22.17;5.25;;;;;;;;;;4938570;28;20369;-88
2022/05/14 13:53:32;;;;;;;27.30;5.05;;;;;;;;;;4950686;28;20711;-89
2022/05/14 13:56:04;;;;;;;21.17;4.70;;;;;;;;;;4943287;28;20038;-89
2022/05/14 13:58:31;;;;;;;20.48;5.93;;;;;;;;;;4966614;28;20035;-89
2022/05/14 14:01:05;;;;;;;21.65;4.57;;;;;;;;;;4947295;28;20510;-89
2022/05/14 14:03:42;;;;;;;28.67;5.82;;;;;;;;;;4942499;28;20287;-89
2022/05/14 14:06:09;;;;;;;24.52;5.72;;;;;;;;;;4947183;28;20039;-89
2022/05/14 14:08:35;;;;;;;18.92;4.80;;;;;;;;;;4944236;28;20035;-89
2022/05/14 14:11:01;;;;;;;17.65;5.10;;;;;;;;;;4945638;28;20030;-89
2022/05/14 14:13:28;;;;;;;27.73;5.22;;;;;;;;;;4960967;28;20036;-89
2022/05/14 14:15:54;;;;;;;26.30;5.80;;;;;;;;;;4968840;28;20569;-89
2022/05/14 14:18:21;;;;;;;31.52;6.40;;;;;;;;;;4962448;28;20088;-89
2022/05/14 14:20:49;;;;;;;18.02;5.07;;;;;;;;;;4967841;28;20634;-89
2022/05/14 14:23:17;;;;;;;24.17;6.57;;;;;;;;;;4981957;28;20027;-89
2022/05/14 14:25:44;;;;;;;26.42;5.75;;;;;;;;;;4984236;28;20030;-89
2022/05/14 14:28:10;;;;;;;21.98;5.47;;;;;;;;;;4955563;28;20121;-88
2022/05/14 14:30:36;;;;;;;19.88;4.57;;;;;;;;;;4969810;28;20125;-88
2022/05/14 14:33:02;;;;;;;30.30;5.80;;;;;;;;;;4982551;28;20546;-89
2022/05/14 14:35:28;;;;;;;24.25;5.50;;;;;;;;;;4967426;28;20034;-88
2022/05/14 14:37:54;;;;;;;27.95;6.28;;;;;;;;;;4961146;28;20026;-89
2022/05/14 14:40:21;;;;;;;19.80;5.53;;;;;;;;;;4981023;28;20027;-89
2022/05/14 14:42:48;;;;;;;33.88;6.45;;;;;;;;;;4984545;28;20097;-88
2022/05/14 14:45:14;;;;;;;23.88;5.57;;;;;;;;;;4965186;28;20430;-89
2022/05/14 14:47:44;;;;;;;28.35;5.97;;;;;;;;;;4955478;28;20026;-88
2022/05/14 14:50:11;;;;;;;18.90;5.15;;;;;;;;;;4961797;28;20031;-89
2022/05/14 14:52:37;;;;;;;21.80;5.40;;;;;;;;;;4957143;28;20124;-89
2022/05/14 14:55:05;;;;;;;28.65;4.78;;;;;;;;;;4969165;28;20126;-88
2022/05/14 14:57:31;;;;;;;23.58;4.82;;;;;;;;;;4969176;28;20045;-88
2022/05/14 14:59:57;;;;;;;31.75;5.65;;;;;;;;;;4966567;28;20067;-89
2022/05/14 15:02:27;;;;;;;24.15;4.82;;;;;;;;;;4971074;28;20126;-88
2022/05/14 15:04:57;;;;;;;23.20;5.43;;;;;;;;;;4966859;28;20042;-88